createdAt,value
2023-08-15T00:01:54.469Z,99.90
2023-08-15T00:03:56.251Z,99.90
2023-08-15T00:05:58.015Z,99.90
2023-08-15T00:07:59.734Z,99.90
2023-08-15T00:10:02.258Z,99.90
2023-08-15T00:12:04.295Z,99.90
2023-08-15T00:14:06.214Z,99.90
2023-08-15T00:16:07.991Z,99.90
2023-08-15T00:18:09.810Z,99.90
2023-08-15T00:20:12.025Z,99.90
2023-08-15T00:22:13.936Z,99.90
2023-08-15T00:24:15.787Z,99.90
2023-08-15T00:26:17.601Z,99.90
2023-08-15T00:28:19.398Z,99.90
2023-08-15T00:30:21.293Z,99.90
2023-08-15T00:32:23.154Z,99.90
2023-08-15T00:34:24.972Z,99.90
2023-08-15T00:36:26.716Z,99.90
2023-08-15T00:38:28.477Z,99.90
2023-08-15T00:40:30.243Z,99.90
2023-08-15T00:42:32.187Z,99.90
2023-08-15T00:44:34.068Z,99.90
2023-08-15T00:46:37.795Z,99.90
2023-08-15T00:48:39.679Z,99.90
2023-08-15T00:50:43.909Z,99.90
2023-08-15T00:52:45.774Z,99.90
2023-08-15T00:54:49.484Z,99.90
2023-08-15T00:56:52.427Z,99.90
2023-08-15T00:58:54.711Z,99.90
2023-08-15T01:00:56.792Z,99.90
2023-08-15T01:02:58.875Z,99.90
2023-08-15T01:05:00.922Z,99.90
2023-08-15T01:07:02.978Z,99.90
2023-08-15T01:09:04.864Z,99.90
2023-08-15T01:11:06.632Z,99.90
2023-08-15T01:13:23.368Z,99.90
2023-08-15T01:15:29.166Z,99.90
2023-08-15T01:17:38.287Z,99.90
2023-08-15T01:19:46.081Z,99.90
2023-08-15T01:21:50.022Z,99.90
2023-08-15T01:23:52.416Z,99.90
2023-08-15T01:25:56.407Z,99.90
2023-08-15T01:27:58.145Z,99.90
2023-08-15T01:30:01.441Z,99.90
2023-08-15T01:32:25.897Z,99.90
2023-08-15T01:34:36.364Z,99.90
2023-08-15T01:36:52.518Z,99.90
2023-08-15T01:38:59.238Z,99.90
2023-08-15T01:41:03.971Z,99.90
2023-08-15T01:43:08.533Z,99.90
2023-08-15T01:45:12.087Z,99.90
2023-08-15T01:47:14.184Z,99.90
2023-08-15T01:49:16.189Z,99.90
2023-08-15T01:51:18.011Z,99.90
2023-08-15T01:53:20.981Z,99.90
2023-08-15T01:55:22.788Z,99.90
2023-08-15T01:57:24.983Z,99.90
2023-08-15T01:59:26.895Z,99.90
2023-08-15T02:01:28.769Z,99.90
2023-08-15T02:03:31.083Z,99.90
2023-08-15T02:05:34.935Z,99.90
2023-08-15T02:07:37.773Z,99.90
2023-08-15T02:09:39.595Z,99.90
2023-08-15T02:11:41.491Z,99.90
2023-08-15T02:13:43.422Z,99.90
2023-08-15T02:15:45.644Z,99.90
2023-08-15T02:17:47.534Z,99.90
2023-08-15T02:19:49.375Z,99.90
2023-08-15T02:21:52.280Z,99.90
2023-08-15T02:23:54.066Z,99.90
2023-08-15T02:25:57.114Z,99.90
2023-08-15T02:27:59.015Z,99.90
2023-08-15T02:30:00.936Z,99.90
2023-08-15T02:32:03.136Z,99.90
2023-08-15T02:34:05.041Z,99.90
2023-08-15T02:36:07.555Z,99.90
2023-08-15T02:38:09.929Z,99.90
2023-08-15T02:40:12.043Z,99.90
2023-08-15T02:42:15.017Z,99.90
2023-08-15T02:44:16.854Z,99.90
2023-08-15T02:46:18.755Z,99.90
2023-08-15T02:48:20.674Z,99.90
2023-08-15T02:50:23.014Z,99.90
2023-08-15T02:52:24.832Z,99.90
2023-08-15T02:54:26.596Z,99.90
2023-08-15T02:56:28.420Z,99.90
2023-08-15T02:58:30.303Z,99.90
2023-08-15T03:00:32.535Z,99.90
2023-08-15T03:02:34.692Z,99.90
2023-08-15T03:04:36.786Z,99.90
2023-08-15T03:06:38.698Z,99.90
2023-08-15T03:08:40.631Z,99.90
2023-08-15T03:10:43.762Z,99.90
2023-08-15T03:12:45.679Z,99.90
2023-08-15T03:14:47.502Z,99.90
2023-08-15T03:16:49.379Z,99.90
2023-08-15T03:18:51.313Z,99.90
2023-08-15T03:21:00.374Z,99.90
2023-08-15T03:23:02.230Z,99.90
2023-08-15T03:25:04.390Z,99.90
2023-08-15T03:27:06.324Z,99.90
2023-08-15T03:29:08.091Z,99.90
2023-08-15T03:31:10.449Z,99.90
2023-08-15T03:33:12.430Z,99.90
2023-08-15T03:35:14.221Z,99.90
2023-08-15T03:37:15.966Z,99.90
2023-08-15T03:39:17.901Z,99.90
2023-08-15T03:41:19.930Z,99.90
2023-08-15T03:43:21.751Z,99.90
2023-08-15T03:45:23.620Z,99.90
2023-08-15T03:47:25.649Z,99.90
2023-08-15T03:49:27.464Z,99.90
2023-08-15T03:51:45.784Z,99.90
2023-08-15T03:53:49.173Z,99.90
2023-08-15T03:55:52.413Z,99.90
2023-08-15T03:57:54.277Z,99.90
2023-08-15T03:59:56.098Z,99.90
2023-08-15T04:01:59.282Z,99.90
2023-08-15T04:04:01.309Z,99.90
2023-08-15T04:06:03.219Z,99.90
2023-08-15T04:08:05.490Z,99.90
2023-08-15T04:10:07.906Z,99.90
2023-08-15T04:12:09.807Z,99.90
2023-08-15T04:14:11.670Z,99.90
2023-08-15T04:16:13.504Z,99.90
2023-08-15T04:18:15.563Z,99.90
2023-08-15T04:20:17.893Z,99.90
2023-08-15T04:22:20.373Z,99.90
2023-08-15T04:24:22.156Z,99.90
2023-08-15T04:26:24.032Z,99.90
2023-08-15T04:28:25.794Z,99.90
2023-08-15T04:30:31.310Z,99.90
2023-08-15T04:32:33.384Z,99.90
2023-08-15T04:34:35.214Z,99.90
2023-08-15T04:36:37.053Z,99.90
2023-08-15T04:38:38.847Z,99.90
2023-08-15T04:40:41.979Z,99.90
2023-08-15T04:42:43.995Z,99.90
2023-08-15T04:44:45.809Z,99.90
2023-08-15T04:46:47.616Z,99.90
2023-08-15T04:48:49.571Z,99.90
2023-08-15T04:50:51.996Z,99.90
2023-08-15T04:52:53.792Z,99.90
2023-08-15T04:55:21.991Z,99.90
2023-08-15T04:57:24.067Z,99.90
2023-08-15T04:59:25.849Z,99.90
2023-08-15T05:01:27.659Z,99.90
2023-08-15T05:03:29.650Z,99.90
2023-08-15T05:05:31.471Z,99.90
2023-08-15T05:07:34.190Z,99.90
2023-08-15T05:09:36.025Z,99.90
2023-08-15T05:11:37.889Z,99.90
2023-08-15T05:13:39.875Z,99.90
2023-08-15T05:15:42.301Z,99.90
2023-08-15T05:17:45.226Z,99.90
2023-08-15T05:19:47.015Z,99.90
2023-08-15T05:21:48.821Z,99.90
2023-08-15T05:23:50.648Z,99.90
2023-08-15T05:25:52.537Z,99.90
2023-08-15T05:27:56.235Z,99.90
2023-08-15T05:29:58.157Z,99.90
2023-08-15T05:31:59.940Z,99.90
2023-08-15T05:34:01.831Z,99.90
2023-08-15T05:36:03.784Z,99.90
2023-08-15T05:38:05.651Z,99.90
2023-08-15T05:40:14.810Z,99.90
2023-08-15T05:42:19.047Z,99.90
2023-08-15T05:44:20.870Z,99.90
2023-08-15T05:46:22.684Z,99.90
2023-08-15T05:48:24.394Z,99.90
2023-08-15T05:50:26.363Z,99.90
2023-08-15T05:52:28.543Z,99.90
2023-08-15T05:54:30.708Z,99.90
2023-08-15T05:56:32.466Z,99.90
2023-08-15T05:58:34.298Z,99.90
2023-08-15T06:00:36.369Z,99.90
2023-08-15T06:02:40.084Z,99.90
2023-08-15T06:04:42.295Z,99.90
2023-08-15T06:06:44.224Z,99.90
2023-08-15T06:08:46.006Z,99.90
2023-08-15T06:10:47.736Z,99.90
2023-08-15T06:12:49.588Z,99.90
2023-08-15T06:14:51.381Z,99.90
2023-08-15T06:16:53.211Z,99.90
2023-08-15T06:18:54.987Z,99.90
2023-08-15T06:20:56.747Z,99.90
2023-08-15T06:22:58.856Z,99.90
2023-08-15T06:25:00.917Z,99.90
2023-08-15T06:27:02.679Z,99.90
2023-08-15T06:29:07.164Z,99.90
2023-08-15T06:31:09.148Z,99.90
2023-08-15T06:33:11.082Z,99.90
2023-08-15T06:35:12.923Z,99.90
2023-08-15T06:37:14.785Z,99.90
2023-08-15T06:39:16.563Z,99.90
2023-08-15T06:41:18.956Z,99.90
2023-08-15T06:43:20.789Z,99.90
2023-08-15T06:45:24.759Z,99.90
2023-08-15T06:47:27.940Z,99.90
2023-08-15T06:49:29.667Z,99.90
2023-08-15T06:51:31.415Z,99.90
2023-08-15T06:53:33.616Z,99.90
2023-08-15T06:55:38.407Z,99.90
2023-08-15T06:57:40.263Z,99.90
2023-08-15T06:59:42.052Z,99.90
2023-08-15T07:01:47.214Z,99.90
2023-08-15T07:03:50.900Z,99.90
2023-08-15T07:05:52.734Z,99.90
2023-08-15T07:07:55.193Z,99.90
2023-08-15T07:09:58.584Z,99.90
2023-08-15T07:12:00.430Z,99.90
2023-08-15T07:14:02.161Z,99.90
2023-08-15T07:16:07.381Z,99.90
2023-08-15T07:18:09.293Z,99.90
2023-08-15T07:20:15.222Z,99.90
2023-08-15T07:22:16.968Z,99.90
2023-08-15T07:24:18.723Z,99.90
2023-08-15T07:26:20.475Z,99.90
2023-08-15T07:28:22.147Z,99.90
2023-08-15T07:30:23.958Z,99.90
2023-08-15T07:32:27.827Z,99.90
2023-08-15T07:34:29.672Z,99.90
2023-08-15T07:36:31.401Z,99.90
2023-08-15T07:38:33.268Z,99.90
2023-08-15T07:40:35.003Z,99.90
2023-08-15T07:42:37.578Z,99.90
2023-08-15T07:44:39.353Z,99.90
2023-08-15T07:46:41.263Z,99.90
2023-08-15T07:48:44.090Z,99.90
2023-08-15T07:50:45.829Z,99.90
2023-08-15T07:52:47.588Z,99.90
2023-08-15T07:54:49.327Z,99.90
2023-08-15T07:56:51.109Z,99.90
2023-08-15T07:58:52.812Z,99.90
2023-08-15T08:00:54.608Z,99.90
2023-08-15T08:02:57.904Z,99.90
2023-08-15T08:04:59.799Z,99.90
2023-08-15T08:07:01.774Z,99.90
2023-08-15T08:09:06.460Z,99.90
2023-08-15T08:11:10.232Z,99.90
2023-08-15T08:13:14.927Z,99.90
2023-08-15T08:15:16.658Z,99.90
2023-08-15T08:17:18.455Z,99.90
2023-08-15T08:19:20.165Z,99.90
2023-08-15T08:21:22.064Z,99.90
2023-08-15T08:23:25.414Z,99.90
2023-08-15T08:25:27.765Z,99.90
2023-08-15T08:27:31.189Z,99.90
2023-08-15T08:29:32.999Z,99.90
2023-08-15T08:31:34.758Z,99.90
2023-08-15T08:33:36.498Z,99.90
2023-08-15T08:35:38.246Z,99.90
2023-08-15T08:37:40.109Z,99.90
2023-08-15T08:39:41.878Z,99.90
2023-08-15T08:41:43.737Z,99.90
2023-08-15T08:43:45.655Z,99.90
2023-08-15T08:45:52.414Z,99.90
2023-08-15T08:47:55.753Z,99.90
2023-08-15T08:49:59.377Z,99.90
2023-08-15T08:52:02.510Z,99.90
2023-08-15T08:54:04.356Z,99.90
2023-08-15T08:56:06.899Z,99.90
2023-08-15T08:58:11.421Z,99.90
2023-08-15T09:00:16.189Z,99.90
2023-08-15T09:02:22.664Z,99.90
2023-08-15T09:04:26.018Z,99.90
2023-08-15T09:06:28.571Z,99.90
2023-08-15T09:08:30.470Z,99.90
2023-08-15T09:10:32.621Z,99.90
2023-08-15T09:12:39.373Z,99.90
2023-08-15T09:14:42.176Z,99.90
2023-08-15T09:16:50.848Z,99.90
2023-08-15T09:18:52.957Z,99.90
2023-08-15T09:20:54.748Z,99.90
2023-08-15T09:22:58.352Z,99.90
2023-08-15T09:25:00.150Z,99.90
2023-08-15T09:27:07.177Z,99.90
2023-08-15T09:29:09.015Z,99.90
2023-08-15T09:31:13.035Z,99.90
2023-08-15T09:33:15.264Z,99.90
2023-08-15T09:35:19.231Z,99.90
2023-08-15T09:37:23.086Z,99.90
2023-08-15T09:39:25.982Z,99.90
2023-08-15T09:41:28.203Z,99.70
2023-08-15T09:43:33.813Z,99.80
2023-08-15T09:45:35.835Z,99.90
2023-08-15T09:47:46.063Z,99.90
2023-08-15T09:49:51.358Z,99.90
2023-08-15T09:51:53.149Z,99.90
2023-08-15T09:53:55.207Z,99.90
2023-08-15T09:55:59.567Z,99.90
2023-08-15T09:58:05.075Z,98.20
2023-08-15T10:00:11.454Z,96.90
2023-08-15T10:02:23.162Z,96.10
2023-08-15T10:04:29.210Z,93.40
2023-08-15T10:06:31.004Z,97.90
2023-08-15T10:08:33.330Z,91.40
2023-08-15T10:10:37.567Z,91.20
2023-08-15T10:12:41.557Z,85.80
2023-08-15T10:14:43.961Z,87.20
2023-08-15T10:16:46.242Z,84.90
2023-08-15T10:19:00.232Z,90.70
2023-08-15T10:21:03.595Z,84.80
2023-08-15T10:23:10.644Z,82.90
2023-08-15T10:25:41.736Z,82.90
2023-08-15T10:27:49.020Z,81.10
2023-08-15T10:30:01.243Z,78.70
2023-08-15T10:32:04.428Z,80.20
2023-08-15T10:34:11.419Z,79.30
2023-08-15T10:36:13.245Z,79.80
2023-08-15T10:38:18.106Z,73.40
2023-08-15T10:40:23.235Z,73.40
2023-08-15T10:42:26.803Z,77.00
2023-08-15T10:44:28.621Z,71.50
2023-08-15T10:46:31.871Z,75.60
2023-08-15T10:50:56.145Z,75.80
2023-08-15T10:53:07.601Z,75.50
2023-08-15T10:55:10.334Z,73.10
2023-08-15T10:57:12.196Z,71.70
2023-08-15T10:59:18.710Z,78.40
2023-08-15T11:01:35.040Z,76.60
2023-08-15T11:03:37.138Z,70.60
2023-08-15T11:05:41.838Z,74.20
2023-08-15T11:07:43.635Z,71.70
2023-08-15T11:09:45.744Z,67.50
2023-08-15T11:11:47.801Z,74.00
2023-08-15T11:13:51.768Z,69.50
2023-08-15T11:15:53.559Z,67.90
2023-08-15T11:17:55.943Z,68.70
2023-08-15T11:19:58.263Z,69.50
2023-08-15T11:22:01.415Z,67.00
2023-08-15T11:24:03.228Z,71.30
2023-08-15T11:26:09.555Z,72.90
2023-08-15T11:28:11.342Z,74.30
2023-08-15T11:30:22.026Z,70.90
2023-08-15T11:32:28.343Z,71.10
2023-08-15T11:34:30.854Z,69.90
2023-08-15T11:36:32.781Z,64.90
2023-08-15T11:38:36.276Z,67.80
2023-08-15T11:40:38.435Z,68.00
2023-08-15T11:42:40.866Z,67.90
2023-08-15T11:44:42.649Z,71.40
2023-08-15T11:48:51.308Z,69.90
2023-08-15T11:50:53.392Z,71.70
2023-08-15T11:52:55.646Z,71.30
2023-08-15T11:55:07.022Z,66.70
2023-08-15T11:57:08.799Z,69.60
2023-08-15T11:59:18.916Z,66.30
2023-08-15T12:01:26.555Z,70.70
2023-08-15T12:03:31.006Z,70.50
2023-08-15T12:05:33.007Z,67.50
2023-08-15T12:07:34.913Z,67.10
2023-08-15T12:09:37.190Z,64.50
2023-08-15T12:11:39.206Z,65.50
2023-08-15T12:13:47.024Z,64.90
2023-08-15T12:15:48.902Z,63.50
2023-08-15T12:17:53.569Z,61.10
2023-08-15T12:19:57.550Z,63.60
2023-08-15T12:22:00.684Z,62.80
2023-08-15T12:26:32.326Z,63.00
2023-08-15T12:28:34.142Z,67.50
2023-08-15T12:30:36.353Z,61.90
2023-08-15T12:32:38.176Z,60.70
2023-08-15T12:34:39.972Z,59.40
